createdAt,value
2018-05-09T00:01:55.311Z,97456.66
2018-05-09T00:04:22.763Z,97454.79
2018-05-09T00:06:50.216Z,97452.79
2018-05-09T00:09:17.657Z,97457.86
2018-05-09T00:11:45.113Z,97458.88
2018-05-09T00:14:12.546Z,97450.66
2018-05-09T00:16:40.037Z,97459.52
2018-05-09T00:19:07.537Z,97459.92
2018-05-09T00:21:34.994Z,97459.55
2018-05-09T00:24:02.529Z,97458.09
2018-05-09T00:26:29.970Z,97464.21
2018-05-09T00:28:57.425Z,97462.37
2018-05-09T00:31:24.927Z,97459.41
2018-05-09T00:36:26.309Z,97462.87
2018-05-09T00:38:53.751Z,97462.52
2018-05-09T00:41:21.194Z,97455.88
2018-05-09T00:43:48.656Z,97454.26
2018-05-09T00:46:16.206Z,97452.05
2018-05-09T00:48:43.667Z,97455.08
2018-05-09T00:51:11.127Z,97449.27
2018-05-09T00:53:38.589Z,97448.61
2018-05-09T00:56:06.026Z,97453.75
2018-05-09T00:58:33.477Z,97452.22
2018-05-09T01:01:01.080Z,97455.77
2018-05-09T01:03:28.540Z,97449.17
2018-05-09T01:05:56.006Z,97455.56
2018-05-09T01:08:23.450Z,97446.62
2018-05-09T01:10:50.910Z,97453.34
2018-05-09T01:13:18.376Z,97448.23
2018-05-09T01:15:45.822Z,97451.17
2018-05-09T01:18:13.288Z,97452.36
2018-05-09T01:20:40.762Z,97440.03
2018-05-09T01:23:08.180Z,97449.84
2018-05-09T01:25:35.654Z,97453.89
2018-05-09T01:28:03.105Z,97443.59
2018-05-09T01:30:30.550Z,97447.98
2018-05-09T01:32:58.011Z,97446.83
2018-05-09T01:35:25.466Z,97437.75
2018-05-09T01:37:52.941Z,97452.05
2018-05-09T01:40:20.393Z,97450.42
2018-05-09T01:42:47.833Z,97452.81
2018-05-09T01:45:15.278Z,97453.36
2018-05-09T01:47:42.792Z,97447.53
2018-05-09T01:50:10.254Z,97450.00
2018-05-09T01:52:37.707Z,97453.79
2018-05-09T01:55:05.188Z,97455.33
2018-05-09T01:57:32.634Z,97450.64
2018-05-09T02:00:00.273Z,97453.06
2018-05-09T02:02:27.718Z,97451.64
2018-05-09T02:04:55.207Z,97452.37
2018-05-09T02:07:22.643Z,97443.67
2018-05-09T02:09:50.095Z,97445.66
2018-05-09T02:12:17.543Z,97443.08
2018-05-09T02:14:44.984Z,97442.59
2018-05-09T02:17:12.442Z,97442.88
2018-05-09T02:19:39.904Z,97432.86
2018-05-09T02:22:07.355Z,97438.81
2018-05-09T02:24:34.801Z,97435.91
2018-05-09T02:27:02.281Z,97440.84
2018-05-09T02:29:29.744Z,97443.94
2018-05-09T02:31:57.225Z,97438.83
2018-05-09T02:34:24.696Z,97445.56
2018-05-09T02:36:52.149Z,97443.42
2018-05-09T02:39:19.609Z,97441.09
2018-05-09T02:41:47.091Z,97436.22
2018-05-09T02:44:14.600Z,97440.75
2018-05-09T02:46:42.085Z,97438.70
2018-05-09T02:49:09.537Z,97432.09
2018-05-09T02:51:36.981Z,97432.47
2018-05-09T02:54:04.429Z,97434.95
2018-05-09T02:56:31.860Z,97435.03
2018-05-09T02:58:59.450Z,97430.39
2018-05-09T03:01:26.801Z,97431.13
2018-05-09T03:03:54.370Z,97433.41
2018-05-09T03:06:21.812Z,97431.24
2018-05-09T03:08:49.270Z,97434.71
2018-05-09T03:11:16.713Z,97434.72
2018-05-09T03:13:44.158Z,97433.29
2018-05-09T03:16:11.616Z,97433.44
2018-05-09T03:18:39.053Z,97432.73
2018-05-09T03:21:06.502Z,97428.16
2018-05-09T03:23:33.973Z,97436.67
2018-05-09T03:26:01.424Z,97441.03
2018-05-09T03:28:28.923Z,97444.23
2018-05-09T03:30:57.226Z,97441.41
2018-05-09T03:33:24.675Z,97437.33
2018-05-09T03:35:52.206Z,97438.11
2018-05-09T03:38:19.658Z,97435.16
2018-05-09T03:40:47.136Z,97434.02
2018-05-09T03:43:14.580Z,97434.22
2018-05-09T03:45:42.024Z,97437.55
2018-05-09T03:48:09.489Z,97442.49
2018-05-09T03:50:36.939Z,97447.22
2018-05-09T03:53:04.395Z,97450.38
2018-05-09T03:55:31.854Z,97448.41
2018-05-09T03:57:59.342Z,97447.55
2018-05-09T04:00:26.777Z,97444.57
2018-05-09T04:03:06.154Z,97437.30
2018-05-09T04:05:45.406Z,97453.20
2018-05-09T04:08:24.664Z,97449.36
2018-05-09T04:10:52.133Z,97448.86
2018-05-09T04:13:19.573Z,97450.56
2018-05-09T04:15:47.063Z,97454.64
2018-05-09T04:18:14.557Z,97455.47
2018-05-09T04:20:42.063Z,97458.14
2018-05-09T04:23:09.470Z,97469.65
2018-05-09T04:25:36.948Z,97466.28
2018-05-09T04:28:04.495Z,97461.85
2018-05-09T04:30:31.892Z,97459.48
2018-05-09T04:32:59.357Z,97464.59
2018-05-09T04:35:26.824Z,97468.05
2018-05-09T04:37:54.282Z,97470.41
2018-05-09T04:40:21.733Z,97470.40
2018-05-09T04:42:49.194Z,97474.16
2018-05-09T04:45:16.671Z,97469.32
2018-05-09T04:47:44.158Z,97464.55
2018-05-09T04:50:11.622Z,97470.78
2018-05-09T04:52:39.061Z,97469.47
2018-05-09T04:55:06.542Z,97468.58
2018-05-09T04:57:33.998Z,97466.03
2018-05-09T05:00:01.481Z,97467.19
2018-05-09T05:02:29.022Z,97465.91
2018-05-09T05:04:56.519Z,97462.36
2018-05-09T05:07:23.994Z,97469.63
2018-05-09T05:09:51.518Z,97467.77
2018-05-09T05:12:18.976Z,97473.89
2018-05-09T05:14:46.976Z,97477.28
2018-05-09T05:17:14.427Z,97482.33
2018-05-09T05:19:41.871Z,97487.35
2018-05-09T05:22:09.343Z,97491.34
2018-05-09T05:24:36.798Z,97485.29
2018-05-09T05:27:04.273Z,97473.08
2018-05-09T05:29:32.530Z,97475.88
2018-05-09T05:32:00.001Z,97475.06
2018-05-09T05:34:27.447Z,97470.59
2018-05-09T05:36:54.899Z,97470.86
2018-05-09T05:39:22.367Z,97471.47
2018-05-09T05:41:49.843Z,97481.44
2018-05-09T05:44:17.302Z,97474.70
2018-05-09T05:46:44.758Z,97480.97
2018-05-09T05:49:12.315Z,97474.95
2018-05-09T05:51:39.764Z,97479.60
2018-05-09T05:54:07.209Z,97483.00
2018-05-09T05:56:34.655Z,97480.50
2018-05-09T05:59:02.129Z,97482.02
2018-05-09T06:01:29.590Z,97475.25
2018-05-09T06:03:57.042Z,97476.48
2018-05-09T06:06:24.558Z,97475.58
2018-05-09T06:08:51.974Z,97479.09
2018-05-09T06:11:19.418Z,97482.73
2018-05-09T06:13:47.680Z,97481.66
2018-05-09T06:16:15.164Z,97486.64
2018-05-09T06:18:42.618Z,97486.13
2018-05-09T06:21:10.093Z,97482.06
2018-05-09T06:23:37.534Z,97494.72
2018-05-09T06:26:04.982Z,97495.32
2018-05-09T06:28:32.490Z,97496.56
2018-05-09T06:30:59.995Z,97497.25
2018-05-09T06:33:27.381Z,97490.25
2018-05-09T06:35:54.847Z,97494.88
2018-05-09T06:38:22.386Z,97498.98
2018-05-09T06:40:49.927Z,97496.88
2018-05-09T06:43:17.967Z,97499.47
2018-05-09T06:45:45.429Z,97502.91
2018-05-09T06:48:12.923Z,97506.77
2018-05-09T06:50:40.367Z,97504.23
2018-05-09T06:53:07.830Z,97501.70
2018-05-09T06:55:35.311Z,97502.49
2018-05-09T06:58:02.760Z,97503.95
2018-05-09T07:00:30.197Z,97509.00
2018-05-09T07:02:57.657Z,97507.52
2018-05-09T07:05:25.105Z,97506.64
2018-05-09T07:07:52.557Z,97509.22
2018-05-09T07:10:20.036Z,97506.13
2018-05-09T07:12:47.558Z,97507.76
2018-05-09T07:15:15.001Z,97512.80
2018-05-09T07:17:42.461Z,97519.32
2018-05-09T07:20:09.906Z,97510.27
2018-05-09T07:22:37.440Z,97510.35
2018-05-09T07:25:04.890Z,97510.13
2018-05-09T07:27:32.374Z,97507.92
2018-05-09T07:29:59.844Z,97511.69
2018-05-09T07:32:27.321Z,97512.27
2018-05-09T07:34:54.821Z,97505.20
2018-05-09T07:37:22.262Z,97497.17
2018-05-09T07:39:49.718Z,97502.66
2018-05-09T07:42:17.294Z,97507.51
2018-05-09T07:44:44.663Z,97508.23
2018-05-09T07:47:12.142Z,97506.43
2018-05-09T07:49:39.622Z,97506.56
2018-05-09T07:52:07.090Z,97521.14
2018-05-09T07:54:34.547Z,97516.83
2018-05-09T07:57:02.001Z,97514.77
2018-05-09T07:59:29.475Z,97515.61
2018-05-09T08:01:56.930Z,97507.89
2018-05-09T08:04:24.373Z,97511.89
2018-05-09T08:06:51.825Z,97512.02
2018-05-09T08:09:19.277Z,97517.48
2018-05-09T08:11:46.727Z,97517.28
2018-05-09T08:14:14.178Z,97518.69
2018-05-09T08:16:41.678Z,97517.84
2018-05-09T08:19:09.109Z,97513.91
2018-05-09T08:21:36.563Z,97505.81
2018-05-09T08:24:04.023Z,97506.14
2018-05-09T08:26:31.495Z,97502.75
2018-05-09T08:28:58.945Z,97502.98
2018-05-09T08:31:26.390Z,97502.81
2018-05-09T08:33:53.869Z,97503.85
2018-05-09T08:36:21.318Z,97502.91
2018-05-09T08:38:48.794Z,97505.52
2018-05-09T08:41:16.236Z,97502.30
2018-05-09T08:43:43.778Z,97506.16
2018-05-09T08:46:11.224Z,97500.70
2018-05-09T08:48:38.771Z,97502.30
2018-05-09T08:51:06.212Z,97501.04
2018-05-09T08:53:33.687Z,97494.34
2018-05-09T08:56:01.142Z,97501.30
2018-05-09T08:58:28.651Z,97493.20
2018-05-09T09:00:56.099Z,97491.05
2018-05-09T09:03:23.555Z,97491.83
2018-05-09T09:05:51.261Z,97480.44
2018-05-09T09:08:18.719Z,97479.66
2018-05-09T09:10:46.185Z,97477.69
2018-05-09T09:13:13.664Z,97475.70
2018-05-09T09:15:41.307Z,97475.20
2018-05-09T09:18:08.666Z,97481.14
2018-05-09T09:20:36.146Z,97471.82
2018-05-09T09:23:03.590Z,97470.61
2018-05-09T09:25:31.051Z,97464.27
2018-05-09T09:27:58.512Z,97464.92
2018-05-09T09:30:25.952Z,97466.45
2018-05-09T09:32:53.404Z,97467.42
2018-05-09T09:35:20.896Z,97457.53
2018-05-09T09:37:48.327Z,97464.85
2018-05-09T09:40:15.802Z,97460.25
2018-05-09T09:42:43.241Z,97454.86
2018-05-09T09:45:10.698Z,97459.96
2018-05-09T09:47:38.146Z,97458.05
2018-05-09T09:50:05.642Z,97460.78
2018-05-09T09:52:33.076Z,97449.34
2018-05-09T09:55:00.515Z,97452.97
2018-05-09T09:57:27.969Z,97454.73
2018-05-09T09:59:55.413Z,97448.73
2018-05-09T10:02:22.867Z,97452.70
2018-05-09T10:04:50.307Z,97453.38
2018-05-09T10:07:17.762Z,97449.98
2018-05-09T10:09:45.207Z,97455.19
2018-05-09T10:12:12.871Z,97450.02
2018-05-09T10:14:40.541Z,97450.28
2018-05-09T10:17:07.981Z,97450.45
2018-05-09T10:19:35.422Z,97447.72
2018-05-09T10:22:02.883Z,97446.16
2018-05-09T10:24:30.356Z,97449.91
2018-05-09T10:26:57.803Z,97450.70
2018-05-09T10:29:25.258Z,97443.08
2018-05-09T10:31:52.747Z,97439.23
2018-05-09T10:34:20.227Z,97438.05
2018-05-09T10:36:47.733Z,97430.55
2018-05-09T10:39:15.178Z,97426.01
2018-05-09T10:41:42.645Z,97427.84
2018-05-09T10:44:10.102Z,97423.34
2018-05-09T10:46:37.568Z,97435.39
2018-05-09T10:49:05.003Z,97425.82
2018-05-09T10:51:32.494Z,97414.92
2018-05-09T10:53:59.954Z,97414.00
2018-05-09T10:56:27.391Z,97413.50
2018-05-09T10:58:54.845Z,97415.46
2018-05-09T11:01:22.285Z,97409.67
2018-05-09T11:03:49.960Z,97410.04
2018-05-09T11:06:17.433Z,97397.38
2018-05-09T11:08:44.865Z,97401.47
2018-05-09T11:11:12.318Z,97400.09
2018-05-09T11:13:39.761Z,97408.14
2018-05-09T11:16:07.237Z,97399.27
2018-05-09T11:18:34.686Z,97399.48
2018-05-09T11:21:02.179Z,97401.56
2018-05-09T11:23:29.645Z,97400.58
2018-05-09T11:25:57.080Z,97397.17
2018-05-09T11:28:24.557Z,97389.04
2018-05-09T11:30:52.022Z,97389.74
2018-05-09T11:33:19.493Z,97388.55
2018-05-09T11:35:46.942Z,97381.33
2018-05-09T11:38:14.463Z,97378.36
2018-05-09T11:40:41.905Z,97381.47
2018-05-09T11:43:09.358Z,97382.36
2018-05-09T11:45:37.029Z,97385.41
2018-05-09T11:48:05.188Z,97383.27
2018-05-09T11:50:32.732Z,97386.09
2018-05-09T11:53:00.233Z,97386.25
2018-05-09T11:55:27.691Z,97383.37
2018-05-09T11:57:55.147Z,97391.66
2018-05-09T12:00:22.609Z,97381.22
2018-05-09T12:02:50.056Z,97372.34
2018-05-09T12:05:17.600Z,97375.64
2018-05-09T12:07:45.019Z,97370.85
2018-05-09T12:10:12.474Z,97379.72
2018-05-09T12:12:39.945Z,97375.30
2018-05-09T12:15:07.395Z,97378.34
2018-05-09T12:17:34.935Z,97375.98
2018-05-09T12:20:02.396Z,97375.33
2018-05-09T12:22:29.845Z,97374.59
2018-05-09T12:24:57.312Z,97372.17
2018-05-09T12:27:24.770Z,97366.33
2018-05-09T12:29:52.214Z,97365.28
2018-05-09T12:32:19.815Z,97356.52
2018-05-09T12:34:47.250Z,97353.44
2018-05-09T12:37:14.731Z,97356.87
2018-05-09T12:39:42.190Z,97350.24
2018-05-09T12:42:09.639Z,97350.22
2018-05-09T12:44:37.106Z,97342.00
2018-05-09T12:47:04.545Z,97347.61
2018-05-09T12:49:32.059Z,97340.61
2018-05-09T12:51:59.514Z,97341.98
2018-05-09T12:54:27.081Z,97343.84
2018-05-09T12:56:54.545Z,97338.50
2018-05-09T12:59:21.989Z,97338.81
2018-05-09T13:01:49.425Z,97338.83
2018-05-09T13:04:16.906Z,97327.27
2018-05-09T13:06:44.365Z,97326.92
2018-05-09T13:09:11.842Z,97319.29
2018-05-09T13:11:39.322Z,97315.24
2018-05-09T13:14:06.834Z,97311.34
2018-05-09T13:16:34.285Z,97308.75
2018-05-09T13:19:02.075Z,97305.85
2018-05-09T13:21:29.513Z,97304.74
2018-05-09T13:23:57.002Z,97300.95
2018-05-09T13:26:25.116Z,97300.23
2018-05-09T13:28:52.569Z,97294.43
2018-05-09T13:31:20.024Z,97292.84
2018-05-09T13:33:47.586Z,97293.20
2018-05-09T13:36:15.038Z,97279.94
2018-05-09T13:38:42.610Z,97280.52
2018-05-09T13:41:10.056Z,97282.47
2018-05-09T13:43:37.499Z,97281.95
2018-05-09T13:46:05.000Z,97273.55
2018-05-09T13:48:32.615Z,97270.55
2018-05-09T13:51:00.293Z,97271.96
2018-05-09T13:53:27.732Z,97265.50
2018-05-09T13:55:55.298Z,97258.47
2018-05-09T13:58:22.809Z,97263.67
2018-05-09T14:00:50.275Z,97256.20
2018-05-09T14:03:17.740Z,97244.89
2018-05-09T14:05:45.203Z,97247.53
2018-05-09T14:08:12.644Z,97253.37
2018-05-09T14:10:40.134Z,97243.73
2018-05-09T14:13:07.594Z,97246.80
2018-05-09T14:15:35.042Z,97247.89
2018-05-09T14:18:02.503Z,97242.17
2018-05-09T14:20:29.962Z,97242.00
2018-05-09T14:22:57.422Z,97242.47
2018-05-09T14:25:24.899Z,97236.03
2018-05-09T14:27:52.342Z,97237.66
2018-05-09T14:30:19.871Z,97231.40
2018-05-09T14:32:47.337Z,97230.72
2018-05-09T14:35:14.792Z,97230.38
2018-05-09T14:37:42.259Z,97228.52
2018-05-09T14:40:09.717Z,97223.98
2018-05-09T14:42:37.185Z,97221.04
2018-05-09T14:45:04.644Z,97212.91
2018-05-09T14:47:32.087Z,97215.20
2018-05-09T14:49:59.563Z,97205.45
2018-05-09T14:52:27.007Z,97204.79
2018-05-09T14:54:54.467Z,97204.80
2018-05-09T14:57:21.941Z,97212.31
2018-05-09T14:59:49.494Z,97221.75
2018-05-09T15:02:16.864Z,97227.77
2018-05-09T15:04:44.325Z,97221.75
2018-05-09T15:07:11.771Z,97207.64
2018-05-09T15:09:39.238Z,97211.88
2018-05-09T15:12:06.682Z,97209.28
2018-05-09T15:14:34.143Z,97212.22
2018-05-09T15:17:01.594Z,97212.69
2018-05-09T15:19:29.080Z,97213.78
2018-05-09T15:21:56.525Z,97209.72
2018-05-09T15:24:24.003Z,97208.40
2018-05-09T15:26:51.481Z,97212.48
2018-05-09T15:29:18.930Z,97208.39
2018-05-09T15:31:46.426Z,97210.73
2018-05-09T15:34:13.883Z,97202.31
2018-05-09T15:36:41.349Z,97204.34
2018-05-09T15:39:08.888Z,97201.58
2018-05-09T15:41:36.273Z,97199.40
2018-05-09T15:44:03.723Z,97208.72
2018-05-09T15:46:31.163Z,97203.20
2018-05-09T15:48:58.617Z,97200.33
2018-05-09T15:51:26.068Z,97199.87
2018-05-09T15:53:53.517Z,97204.83
2018-05-09T15:56:20.979Z,97202.22
2018-05-09T15:58:48.489Z,97198.63
2018-05-09T16:01:15.932Z,97197.94
2018-05-09T16:03:43.404Z,97196.74
2018-05-09T16:06:10.849Z,97193.42
2018-05-09T16:08:38.311Z,97190.31
2018-05-09T16:11:05.766Z,97188.52
2018-05-09T16:13:33.217Z,97200.48
2018-05-09T16:16:00.737Z,97186.91
2018-05-09T16:18:28.223Z,97188.77
2018-05-09T16:20:55.656Z,97186.65
2018-05-09T16:23:23.115Z,97188.59
2018-05-09T16:25:50.589Z,97195.02
2018-05-09T16:28:18.097Z,97196.77
2018-05-09T16:30:45.537Z,97198.83
2018-05-09T16:33:12.991Z,97194.30
2018-05-09T16:35:40.429Z,97190.51
2018-05-09T16:38:07.903Z,97198.89
2018-05-09T16:40:35.346Z,97196.89
2018-05-09T16:43:02.801Z,97195.19
2018-05-09T16:45:30.270Z,97191.34
2018-05-09T16:47:57.710Z,97195.87
2018-05-09T16:50:25.181Z,97193.12
2018-05-09T16:52:52.653Z,97194.72
2018-05-09T16:55:20.096Z,97184.14
2018-05-09T16:57:47.537Z,97191.27
2018-05-09T17:00:14.985Z,97191.91
2018-05-09T17:02:42.438Z,97185.74
2018-05-09T17:05:10.144Z,97187.28
2018-05-09T17:07:38.007Z,97188.71
2018-05-09T17:10:05.725Z,97181.41
2018-05-09T17:12:33.212Z,97187.31
2018-05-09T17:15:00.706Z,97180.90
2018-05-09T17:17:28.182Z,97181.53
2018-05-09T17:19:55.654Z,97188.45
2018-05-09T17:22:31.884Z,97184.66
2018-05-09T17:24:59.500Z,97187.36
2018-05-09T17:27:26.933Z,97180.31
2018-05-09T17:29:54.378Z,97183.36
2018-05-09T17:32:21.852Z,97180.89
2018-05-09T17:34:49.316Z,97182.14
2018-05-09T17:37:16.797Z,97182.92
2018-05-09T17:39:44.251Z,97179.06
2018-05-09T17:42:11.737Z,97173.63
2018-05-09T17:44:39.217Z,97175.88
2018-05-09T17:47:06.678Z,97176.42
2018-05-09T17:49:34.136Z,97179.70
2018-05-09T17:52:01.585Z,97185.81
2018-05-09T17:54:29.032Z,97177.11
2018-05-09T17:56:56.556Z,97179.95
2018-05-09T17:59:24.049Z,97181.66
2018-05-09T18:01:51.485Z,97180.61
2018-05-09T18:04:18.931Z,97184.81
2018-05-09T18:06:46.413Z,97185.42
2018-05-09T18:09:13.864Z,97186.27
2018-05-09T18:11:41.684Z,97185.18
2018-05-09T18:14:09.149Z,97189.52
2018-05-09T18:16:36.594Z,97184.70
2018-05-09T18:19:04.042Z,97186.36
2018-05-09T18:21:32.436Z,97189.00
2018-05-09T18:24:00.014Z,97186.70
2018-05-09T18:26:27.473Z,97180.99
2018-05-09T18:28:54.948Z,97182.72
2018-05-09T18:31:22.477Z,97184.44
2018-05-09T18:33:49.978Z,97181.80
2018-05-09T18:36:17.427Z,97183.47
2018-05-09T18:38:44.910Z,97185.54
2018-05-09T18:41:12.393Z,97194.02
2018-05-09T18:43:39.850Z,97188.80
2018-05-09T18:46:07.438Z,97191.32
2018-05-09T18:48:35.055Z,97197.45
2018-05-09T18:51:02.581Z,97191.75
2018-05-09T18:53:30.038Z,97201.45
2018-05-09T18:55:57.505Z,97201.56
2018-05-09T18:58:24.944Z,97202.14
2018-05-09T19:00:52.406Z,97201.81
2018-05-09T19:03:19.976Z,97205.50
2018-05-09T19:05:47.437Z,97210.87
2018-05-09T19:08:14.883Z,97208.52
2018-05-09T19:10:42.504Z,97211.01
2018-05-09T19:13:09.922Z,97218.46
2018-05-09T19:15:37.364Z,97219.98
2018-05-09T19:18:04.809Z,97226.89
2018-05-09T19:20:32.277Z,97220.36
2018-05-09T19:22:59.749Z,97224.85
2018-05-09T19:25:27.193Z,97223.61
2018-05-09T19:27:54.637Z,97220.47
2018-05-09T19:30:22.815Z,97226.89
2018-05-09T19:32:51.175Z,97226.16
2018-05-09T19:35:19.051Z,97235.63
2018-05-09T19:37:46.514Z,97234.36
2018-05-09T19:40:13.956Z,97236.77
2018-05-09T19:42:41.433Z,97232.88
2018-05-09T19:45:08.886Z,97237.64
2018-05-09T19:47:36.500Z,97238.89
2018-05-09T19:50:03.993Z,97240.35
2018-05-09T19:52:31.430Z,97248.34
2018-05-09T19:54:58.930Z,97249.41
2018-05-09T19:57:26.350Z,97248.02
2018-05-09T19:59:53.833Z,97248.70
2018-05-09T20:02:21.270Z,97250.40
2018-05-09T20:04:48.717Z,97240.52
2018-05-09T20:07:16.227Z,97244.14
2018-05-09T20:09:43.774Z,97251.08
2018-05-09T20:12:11.323Z,97249.39
2018-05-09T20:14:38.775Z,97252.71
2018-05-09T20:17:06.258Z,97252.90
2018-05-09T20:19:33.692Z,97257.89
2018-05-09T20:22:01.152Z,97257.84
2018-05-09T20:24:28.602Z,97251.33
2018-05-09T20:26:56.070Z,97256.86
2018-05-09T20:29:23.518Z,97249.09
2018-05-09T20:35:01.039Z,97254.59
2018-05-09T20:37:28.501Z,97252.61
2018-05-09T20:39:55.948Z,97252.71
2018-05-09T20:42:23.411Z,97247.19
2018-05-09T20:44:50.863Z,97257.55
2018-05-09T20:47:18.305Z,97254.23
2018-05-09T20:49:45.746Z,97259.94
2018-05-09T20:52:13.179Z,97256.91
2018-05-09T20:57:14.398Z,97257.78
2018-05-09T20:59:41.836Z,97257.22
2018-05-09T21:02:09.286Z,97248.89
2018-05-09T21:04:36.752Z,97250.37
2018-05-09T21:07:04.286Z,97248.56
2018-05-09T21:09:31.792Z,97253.03
2018-05-09T21:12:08.979Z,97250.95
2018-05-09T21:14:36.513Z,97254.39
2018-05-09T21:17:03.908Z,97262.58
2018-05-09T21:19:31.346Z,97273.91
2018-05-09T21:21:58.802Z,97270.69
2018-05-09T21:24:26.260Z,97274.94
2018-05-09T21:26:53.742Z,97268.30
2018-05-09T21:29:21.297Z,97269.76
2018-05-09T21:31:48.745Z,97262.84
2018-05-09T21:34:16.221Z,97264.08
2018-05-09T21:36:43.720Z,97261.77
2018-05-09T21:39:11.167Z,97264.12
2018-05-09T21:41:38.678Z,97254.83
2018-05-09T21:44:06.180Z,97256.67
2018-05-09T21:46:33.663Z,97259.34
2018-05-09T21:49:01.142Z,97271.42
2018-05-09T21:51:28.630Z,97290.94
2018-05-09T21:53:56.087Z,97290.62
2018-05-09T21:56:23.599Z,97287.99
2018-05-09T21:58:51.075Z,97281.91
2018-05-09T22:01:18.567Z,97279.06
2018-05-09T22:03:45.999Z,97284.50
2018-05-09T22:06:13.445Z,97282.80
2018-05-09T22:08:40.897Z,97277.13
2018-05-09T22:11:08.363Z,97274.94
2018-05-09T22:13:35.849Z,97275.25
2018-05-09T22:16:03.358Z,97279.28
2018-05-09T22:18:30.896Z,97276.75
2018-05-09T22:20:58.359Z,97278.51
2018-05-09T22:23:25.831Z,97280.23
2018-05-09T22:25:53.309Z,97278.91
2018-05-09T22:28:20.837Z,97272.43
2018-05-09T22:30:48.322Z,97265.92
2018-05-09T22:33:15.794Z,97264.00
2018-05-09T22:35:43.244Z,97259.76
2018-05-09T22:38:11.027Z,97257.02
2018-05-09T22:40:38.543Z,97253.16
2018-05-09T22:43:06.935Z,97256.94
2018-05-09T22:45:34.414Z,97263.08
2018-05-09T22:48:01.906Z,97266.36
2018-05-09T22:50:29.440Z,97260.36
2018-05-09T22:52:56.972Z,97261.47
2018-05-09T22:55:24.433Z,97259.81
2018-05-09T22:57:51.894Z,97255.58
2018-05-09T23:00:19.968Z,97257.73
2018-05-09T23:02:47.493Z,97255.28
2018-05-09T23:05:14.942Z,97244.50
2018-05-09T23:07:42.410Z,97247.25
2018-05-09T23:10:09.859Z,97244.06
2018-05-09T23:12:37.310Z,97245.22
2018-05-09T23:15:04.814Z,97248.66
2018-05-09T23:17:32.269Z,97244.53
2018-05-09T23:19:59.736Z,97242.87
2018-05-09T23:22:27.179Z,97243.78
2018-05-09T23:24:54.747Z,97237.94
2018-05-09T23:27:22.191Z,97228.17
2018-05-09T23:29:49.655Z,97237.34
2018-05-09T23:32:17.095Z,97234.50
2018-05-09T23:34:44.542Z,97241.11
2018-05-09T23:37:12.030Z,97242.25
2018-05-09T23:39:39.573Z,97239.80
2018-05-09T23:42:07.017Z,97237.55
2018-05-09T23:44:34.462Z,97237.81
2018-05-09T23:47:01.916Z,97241.22
2018-05-09T23:49:29.412Z,97239.23
2018-05-09T23:51:56.866Z,97242.06
2018-05-09T23:54:24.315Z,97232.53
2018-05-09T23:56:51.782Z,97234.61
2018-05-09T23:59:19.224Z,97236.11
